createdAt,value
2023-01-23T00:02:43.718Z,59.16
2023-01-23T00:05:45.463Z,59.12
2023-01-23T00:08:47.222Z,59.23
2023-01-23T00:11:48.875Z,59.12
2023-01-23T00:14:50.534Z,59.29
2023-01-23T00:17:52.398Z,59.29
2023-01-23T00:20:54.059Z,59.15
2023-01-23T00:23:57.665Z,59.32
2023-01-23T00:26:59.324Z,59.30
2023-01-23T00:30:00.986Z,59.38
2023-01-23T00:33:02.641Z,59.44
2023-01-23T00:36:04.915Z,59.41
2023-01-23T00:39:20.828Z,59.34
2023-01-23T00:42:22.456Z,59.31
2023-01-23T00:45:23.986Z,59.19
2023-01-23T00:48:25.781Z,59.27
2023-01-23T00:51:27.440Z,59.20
2023-01-23T00:54:28.972Z,59.39
2023-01-23T00:57:30.540Z,59.27
2023-01-23T01:00:32.176Z,59.41
2023-01-23T01:03:34.313Z,59.40
2023-01-23T01:06:36.231Z,59.55
2023-01-23T01:09:37.919Z,59.50
2023-01-23T01:12:39.562Z,59.61
2023-01-23T01:15:41.329Z,59.78
2023-01-23T01:18:44.622Z,60.14
2023-01-23T01:21:46.295Z,60.25
2023-01-23T01:24:47.957Z,60.27
2023-01-23T01:27:49.606Z,60.32
2023-01-23T01:30:51.289Z,60.25
2023-01-23T01:33:53.075Z,60.23
2023-01-23T01:36:54.679Z,60.14
2023-01-23T01:39:56.271Z,60.07
2023-01-23T01:43:01.589Z,59.96
2023-01-23T01:46:22.966Z,59.87
2023-01-23T01:49:32.274Z,59.81
2023-01-23T01:52:33.853Z,59.80
2023-01-23T01:55:35.574Z,59.80
2023-01-23T01:58:37.663Z,59.74
2023-01-23T02:01:41.082Z,59.68
2023-01-23T02:04:45.500Z,59.77
2023-01-23T02:08:01.571Z,59.81
2023-01-23T02:11:03.676Z,59.80
2023-01-23T02:14:06.811Z,59.86
2023-01-23T02:17:08.796Z,59.88
2023-01-23T02:20:22.644Z,60.00
2023-01-23T02:23:27.475Z,59.99
2023-01-23T02:26:36.745Z,60.06
2023-01-23T02:29:44.705Z,60.13
2023-01-23T02:32:46.892Z,60.13
2023-01-23T02:35:48.470Z,60.04
2023-01-23T02:39:02.754Z,60.23
2023-01-23T02:42:05.912Z,60.20
2023-01-23T02:45:19.334Z,60.16
2023-01-23T02:48:22.027Z,60.19
2023-01-23T02:51:24.466Z,60.31
2023-01-23T02:54:26.566Z,60.41
2023-01-23T02:57:28.201Z,60.41
2023-01-23T03:00:30.220Z,60.42
2023-01-23T03:03:31.856Z,60.51
2023-01-23T03:06:37.945Z,60.52
2023-01-23T03:09:39.759Z,60.51
2023-01-23T03:12:43.589Z,60.60
2023-01-23T03:15:45.349Z,60.58
2023-01-23T03:18:54.144Z,60.93
2023-01-23T03:21:57.070Z,61.04
2023-01-23T03:24:58.948Z,61.17
2023-01-23T03:28:00.489Z,61.15
2023-01-23T03:31:02.390Z,61.17
2023-01-23T03:34:04.471Z,61.16
2023-01-23T03:37:09.471Z,61.13
2023-01-23T03:40:42.511Z,61.13
2023-01-23T03:43:45.369Z,61.22
2023-01-23T03:46:48.540Z,61.24
2023-01-23T03:49:50.200Z,61.12
2023-01-23T03:52:51.962Z,61.22
2023-01-23T03:55:53.641Z,61.28
2023-01-23T03:58:55.866Z,61.35
2023-01-23T04:01:58.263Z,61.20
2023-01-23T04:04:59.924Z,61.22
2023-01-23T04:08:02.440Z,61.36
2023-01-23T04:11:06.529Z,61.35
2023-01-23T04:14:08.119Z,61.28
2023-01-23T04:17:11.030Z,61.24
2023-01-23T04:20:13.978Z,61.33
2023-01-23T04:23:17.256Z,61.33
2023-01-23T04:26:18.780Z,61.29
2023-01-23T04:29:20.676Z,61.27
2023-01-23T04:32:22.746Z,61.31
2023-01-23T04:35:24.391Z,61.44
2023-01-23T04:38:28.628Z,61.44
2023-01-23T04:41:32.689Z,61.87
2023-01-23T04:44:37.719Z,62.11
2023-01-23T04:47:59.609Z,62.36
2023-01-23T04:51:01.291Z,62.41
2023-01-23T04:54:03.192Z,62.48
2023-01-23T04:57:04.904Z,62.42
2023-01-23T05:00:08.411Z,62.43
2023-01-23T05:03:11.470Z,62.31
2023-01-23T05:06:16.303Z,62.23
2023-01-23T05:09:18.411Z,62.23
2023-01-23T05:12:25.136Z,62.29
2023-01-23T05:15:26.746Z,62.39
2023-01-23T05:18:29.359Z,62.45
2023-01-23T05:21:31.677Z,62.46
2023-01-23T05:24:33.414Z,62.55
2023-01-23T05:27:34.979Z,62.51
2023-01-23T05:30:37.682Z,62.52
2023-01-23T05:34:05.565Z,62.64
2023-01-23T05:37:07.639Z,62.69
2023-01-23T05:40:11.777Z,62.73
2023-01-23T05:43:31.953Z,62.84
2023-01-23T05:46:59.527Z,63.03
2023-01-23T05:50:01.494Z,63.33
2023-01-23T05:53:06.914Z,63.59
2023-01-23T05:56:10.225Z,63.84
2023-01-23T05:59:32.168Z,63.87
2023-01-23T06:02:43.989Z,63.85
2023-01-23T06:06:06.381Z,63.87
2023-01-23T06:09:08.011Z,63.84
2023-01-23T06:12:10.650Z,63.95
2023-01-23T06:15:12.846Z,63.87
2023-01-23T06:18:14.674Z,64.02
2023-01-23T06:21:18.424Z,64.04
2023-01-23T06:24:20.256Z,64.19
2023-01-23T06:27:23.051Z,64.32
2023-01-23T06:30:25.415Z,64.58
2023-01-23T06:33:27.371Z,64.84
2023-01-23T06:36:33.091Z,65.12
2023-01-23T06:39:34.898Z,65.31
2023-01-23T06:42:37.111Z,65.33
2023-01-23T06:45:39.551Z,65.53
2023-01-23T06:48:41.316Z,65.46
2023-01-23T06:51:43.533Z,65.54
2023-01-23T06:54:46.125Z,65.51
2023-01-23T06:57:47.760Z,65.64
2023-01-23T07:00:49.793Z,65.71
2023-01-23T07:04:11.732Z,65.68
2023-01-23T07:07:14.614Z,65.93
2023-01-23T07:10:16.536Z,66.05
2023-01-23T07:13:19.273Z,66.18
2023-01-23T07:16:21.112Z,66.28
2023-01-23T07:19:22.937Z,66.25
2023-01-23T07:22:24.760Z,66.19
2023-01-23T07:25:26.646Z,66.12
2023-01-23T07:28:28.380Z,66.14
2023-01-23T07:31:30.086Z,66.00
2023-01-23T07:34:32.731Z,66.02
2023-01-23T07:37:34.492Z,66.06
2023-01-23T07:40:38.997Z,66.21
2023-01-23T07:43:40.672Z,66.40
2023-01-23T07:46:42.431Z,66.75
2023-01-23T07:49:44.033Z,66.88
2023-01-23T07:52:45.629Z,67.21
2023-01-23T07:55:47.237Z,67.40
2023-01-23T07:58:52.042Z,67.40
2023-01-23T08:01:53.564Z,67.44
2023-01-23T08:04:55.340Z,67.53
2023-01-23T08:08:12.138Z,67.59
2023-01-23T08:11:14.766Z,67.71
2023-01-23T08:14:16.385Z,67.81
2023-01-23T08:17:17.995Z,67.98
2023-01-23T08:20:19.912Z,68.12
2023-01-23T08:23:25.535Z,68.43
2023-01-23T08:26:27.159Z,68.72
2023-01-23T08:29:28.809Z,68.79
2023-01-23T08:32:30.647Z,68.89
2023-01-23T08:35:32.239Z,68.81
2023-01-23T08:38:33.887Z,68.76
2023-01-23T08:41:35.461Z,68.86
2023-01-23T08:44:37.112Z,68.77
2023-01-23T08:47:38.875Z,68.71
2023-01-23T08:50:40.430Z,68.91
2023-01-23T08:53:42.308Z,69.06
2023-01-23T08:56:43.944Z,69.24
2023-01-23T08:59:45.721Z,69.37
2023-01-23T09:02:48.036Z,69.37
2023-01-23T09:05:49.668Z,69.37
2023-01-23T09:08:51.332Z,69.28
2023-01-23T09:11:53.974Z,69.31
2023-01-23T09:14:55.557Z,69.27
2023-01-23T09:17:57.325Z,69.41
2023-01-23T09:20:59.105Z,69.51
2023-01-23T09:24:00.641Z,69.58
2023-01-23T09:27:08.161Z,69.78
2023-01-23T09:30:10.654Z,69.72
2023-01-23T09:33:12.265Z,69.76
2023-01-23T09:36:14.030Z,69.73
2023-01-23T09:39:15.662Z,69.61
2023-01-23T09:42:23.333Z,69.57
2023-01-23T09:45:25.942Z,69.86
2023-01-23T09:48:43.498Z,69.87
2023-01-23T09:51:51.914Z,70.04
2023-01-23T09:54:57.208Z,70.16
2023-01-23T09:58:01.484Z,70.09
2023-01-23T10:01:03.474Z,70.08
2023-01-23T10:04:05.745Z,70.00
2023-01-23T10:07:10.334Z,70.03
2023-01-23T10:10:36.995Z,70.02
2023-01-23T10:14:55.838Z,70.12
2023-01-23T10:18:10.262Z,70.26
2023-01-23T10:21:32.362Z,70.41
2023-01-23T10:24:51.740Z,70.43
2023-01-23T10:27:58.823Z,70.55
2023-01-23T10:31:02.669Z,70.43
2023-01-23T10:34:08.496Z,70.57
2023-01-23T10:37:30.374Z,70.66
2023-01-23T10:40:51.645Z,70.74
2023-01-23T10:43:55.057Z,70.74
2023-01-23T10:47:02.576Z,70.77
2023-01-23T10:50:05.417Z,70.76
2023-01-23T10:53:08.832Z,70.80
2023-01-23T10:56:14.930Z,70.68
2023-01-23T10:59:41.385Z,70.77
2023-01-23T11:02:44.238Z,70.87
2023-01-23T11:05:53.395Z,71.01
2023-01-23T11:09:02.409Z,71.17
2023-01-23T11:12:05.792Z,71.13
2023-01-23T11:15:20.166Z,71.06
2023-01-23T11:18:36.099Z,70.96
2023-01-23T11:22:00.426Z,70.84
2023-01-23T11:25:27.081Z,70.78
2023-01-23T11:28:31.079Z,70.72
2023-01-23T11:31:32.932Z,70.80
2023-01-23T11:34:41.120Z,70.90
2023-01-23T11:37:42.761Z,71.00
2023-01-23T11:40:44.589Z,70.91
2023-01-23T11:43:46.137Z,70.89
2023-01-23T11:47:10.864Z,70.77
2023-01-23T11:50:18.241Z,70.73
2023-01-23T11:53:55.380Z,70.97
2023-01-23T11:57:05.803Z,70.94
2023-01-23T12:00:35.308Z,70.97
2023-01-23T12:04:02.051Z,70.97
2023-01-23T12:07:23.992Z,70.96
2023-01-23T12:10:30.862Z,70.98
2023-01-23T12:13:40.242Z,71.09
2023-01-23T12:17:02.197Z,70.98
2023-01-23T12:20:22.751Z,71.01
2023-01-23T12:23:34.343Z,70.94
2023-01-23T12:26:45.334Z,70.84
2023-01-23T12:30:07.474Z,70.81
2023-01-23T12:33:24.384Z,70.77
2023-01-23T12:37:12.384Z,70.70
2023-01-23T12:40:25.501Z,70.66
2023-01-23T12:43:40.887Z,70.63
2023-01-23T12:46:58.061Z,70.48
2023-01-23T12:50:08.934Z,70.33
2023-01-23T12:53:13.126Z,70.23
2023-01-23T12:56:23.310Z,70.11
2023-01-23T12:59:48.217Z,70.07
2023-01-23T13:03:14.892Z,69.87
2023-01-23T13:06:26.299Z,69.90
2023-01-23T13:09:43.794Z,69.71
2023-01-23T13:12:45.648Z,69.49
2023-01-23T13:16:28.195Z,69.50
2023-01-23T13:19:50.917Z,69.34
2023-01-23T13:22:52.524Z,69.16
2023-01-23T13:26:16.109Z,69.11
2023-01-23T13:29:49.974Z,68.89
2023-01-23T13:32:53.211Z,68.74
2023-01-23T13:35:56.254Z,68.61
2023-01-23T13:39:16.697Z,68.63
2023-01-23T13:42:27.536Z,68.52
2023-01-23T13:45:30.335Z,68.37
2023-01-23T14:23:31.343Z,67.61
2023-01-23T14:26:35.187Z,67.43
2023-01-23T14:29:36.932Z,67.35
2023-01-23T14:32:39.246Z,67.18
2023-01-23T14:35:43.245Z,67.14
2023-01-23T14:38:48.568Z,67.11
2023-01-23T14:41:50.959Z,66.96
2023-01-23T14:44:53.062Z,66.96
2023-01-23T14:48:05.265Z,66.85
2023-01-23T14:51:28.948Z,66.67
2023-01-23T14:54:33.348Z,66.60
2023-01-23T14:57:35.668Z,66.54
2023-01-23T15:00:45.066Z,66.47
2023-01-23T15:04:00.242Z,66.39
2023-01-23T15:07:02.475Z,66.32
2023-01-23T15:10:04.345Z,66.31
2023-01-23T15:13:11.968Z,66.30
2023-01-23T15:16:22.205Z,66.49
2023-01-23T15:19:24.277Z,66.39
2023-01-23T15:22:30.509Z,66.55
2023-01-23T15:25:33.831Z,66.39
2023-01-23T15:28:48.995Z,66.31
2023-01-23T15:32:00.294Z,66.23
2023-01-23T15:35:02.047Z,66.20
2023-01-23T15:38:07.779Z,66.26
2023-01-23T15:41:10.771Z,66.09
2023-01-23T15:44:18.271Z,65.91
2023-01-23T15:47:20.009Z,65.89
2023-01-23T15:50:21.773Z,65.84
2023-01-23T15:53:23.335Z,65.93
2023-01-23T15:56:28.980Z,66.04
2023-01-23T15:59:33.303Z,65.97
2023-01-23T16:02:39.414Z,65.84
2023-01-23T16:05:46.035Z,65.76
2023-01-23T16:08:55.037Z,65.72
2023-01-23T16:12:02.595Z,65.63
2023-01-23T16:15:19.569Z,65.61
2023-01-23T16:18:21.224Z,65.51
2023-01-23T16:21:29.079Z,65.52
2023-01-23T16:24:35.289Z,65.44
2023-01-23T16:27:37.025Z,65.40
2023-01-23T16:30:38.647Z,65.46
2023-01-23T16:33:40.304Z,65.42
2023-01-23T16:36:41.940Z,65.37
2023-01-23T16:39:44.854Z,65.38
2023-01-23T16:42:47.949Z,65.41
2023-01-23T16:45:49.808Z,65.48
2023-01-23T16:48:54.856Z,65.41
2023-01-23T16:51:59.317Z,65.46
2023-01-23T16:55:00.908Z,65.46
2023-01-23T16:58:03.114Z,65.49
2023-01-23T17:01:09.043Z,65.35
2023-01-23T17:04:15.094Z,65.32
2023-01-23T17:07:18.572Z,65.26
2023-01-23T17:10:22.955Z,65.24
2023-01-23T17:13:25.018Z,65.20
2023-01-23T17:16:28.204Z,65.13
2023-01-23T17:19:35.202Z,65.00
2023-01-23T17:22:41.116Z,64.95
2023-01-23T17:25:59.274Z,64.97
2023-01-23T17:29:02.315Z,64.89
2023-01-23T17:32:04.485Z,64.83
2023-01-23T17:35:08.983Z,64.99
2023-01-23T17:38:17.430Z,65.07
2023-01-23T17:41:19.050Z,65.07
2023-01-23T17:44:20.730Z,65.12
2023-01-23T17:47:22.526Z,65.12
2023-01-23T17:50:25.899Z,65.14
2023-01-23T17:53:28.109Z,64.96
2023-01-23T17:56:29.776Z,64.89
2023-01-23T17:59:31.999Z,64.93
2023-01-23T18:02:33.722Z,65.11
2023-01-23T18:05:35.548Z,64.93
2023-01-23T18:08:40.355Z,64.92
2023-01-23T18:11:49.778Z,64.95
2023-01-23T18:14:56.631Z,64.85
2023-01-23T18:18:04.557Z,64.88
2023-01-23T18:21:15.096Z,64.82
2023-01-23T18:24:26.424Z,64.73
2023-01-23T18:27:28.142Z,64.72
2023-01-23T18:30:39.627Z,64.66
2023-01-23T18:33:51.065Z,64.62
2023-01-23T18:36:52.636Z,64.50
2023-01-23T18:40:12.874Z,64.35
2023-01-23T18:43:29.488Z,64.23
2023-01-23T18:46:31.295Z,64.07
2023-01-23T18:49:33.724Z,63.89
2023-01-23T18:52:53.917Z,63.79
2023-01-23T18:56:48.251Z,63.67
2023-01-23T18:59:49.778Z,63.63
2023-01-23T19:02:55.302Z,63.67
2023-01-23T19:05:57.155Z,63.63
2023-01-23T19:08:59.020Z,63.50
2023-01-23T19:12:20.567Z,63.51
2023-01-23T19:15:35.269Z,63.52
2023-01-23T19:18:46.991Z,63.65
2023-01-23T19:21:48.839Z,63.63
2023-01-23T19:24:50.817Z,63.51
2023-01-23T19:27:55.948Z,63.50
2023-01-23T19:30:57.885Z,63.50
2023-01-23T19:34:00.625Z,63.41
2023-01-23T19:37:02.727Z,63.44
2023-01-23T19:40:04.704Z,63.33
2023-01-23T19:43:14.398Z,63.32
2023-01-23T19:46:17.147Z,63.28
2023-01-23T19:49:18.870Z,63.24
2023-01-23T19:52:21.777Z,63.14
2023-01-23T19:55:32.273Z,63.10
2023-01-23T19:58:33.882Z,63.13
2023-01-23T20:01:41.286Z,62.97
2023-01-23T20:04:42.934Z,62.98
2023-01-23T20:07:45.077Z,62.94
2023-01-23T20:10:46.720Z,62.79
2023-01-23T20:13:48.410Z,62.76
2023-01-23T20:16:50.374Z,62.89
2023-01-23T20:19:53.449Z,62.78
2023-01-23T20:22:55.100Z,62.86
2023-01-23T20:26:01.021Z,62.82
2023-01-23T20:29:04.129Z,63.00
2023-01-23T20:32:06.086Z,63.03
2023-01-23T20:35:08.338Z,63.23
2023-01-23T20:38:10.903Z,63.48
2023-01-23T20:41:16.621Z,63.70
2023-01-23T20:44:19.455Z,63.92
2023-01-23T20:47:21.231Z,64.17
2023-01-23T20:50:23.990Z,64.32
2023-01-23T20:53:32.236Z,64.24
2023-01-23T20:56:34.714Z,64.41
2023-01-23T20:59:36.531Z,64.27
2023-01-23T21:02:38.438Z,64.50
2023-01-23T21:05:40.267Z,64.53
2023-01-23T21:08:42.591Z,64.62
2023-01-23T21:11:44.537Z,64.66
2023-01-23T21:14:46.156Z,64.67
2023-01-23T21:17:47.727Z,64.64
2023-01-23T21:20:49.428Z,64.67
2023-01-23T21:23:51.267Z,64.66
2023-01-23T21:26:52.998Z,64.60
2023-01-23T21:29:54.579Z,64.71
2023-01-23T21:33:09.131Z,64.77
2023-01-23T21:36:11.900Z,64.89
2023-01-23T21:39:14.712Z,64.93
2023-01-23T21:42:16.349Z,64.87
2023-01-23T21:45:18.059Z,64.92
2023-01-23T21:48:20.290Z,64.91
2023-01-23T21:51:25.264Z,64.77
2023-01-23T21:54:26.784Z,64.75
2023-01-23T21:57:28.315Z,64.72
2023-01-23T22:00:48.997Z,64.73
2023-01-23T22:03:51.696Z,64.66
2023-01-23T22:06:55.745Z,64.66
2023-01-23T22:09:57.321Z,64.79
2023-01-23T22:12:59.494Z,64.75
2023-01-23T22:16:01.779Z,64.72
2023-01-23T22:19:04.341Z,64.81
2023-01-23T22:22:05.968Z,64.90
2023-01-23T22:25:08.417Z,65.05
2023-01-23T22:28:10.347Z,65.13
2023-01-23T22:31:14.549Z,65.32
2023-01-23T22:34:16.250Z,65.32
2023-01-23T22:37:18.011Z,65.24
2023-01-23T22:40:19.701Z,65.37
2023-01-23T22:43:21.283Z,65.35
2023-01-23T22:46:23.368Z,65.38
2023-01-23T22:49:24.923Z,65.38
2023-01-23T22:52:26.454Z,65.44
2023-01-23T22:55:28.158Z,65.33
2023-01-23T22:58:30.249Z,65.46
2023-01-23T23:01:32.117Z,65.51
2023-01-23T23:04:33.820Z,65.55
2023-01-23T23:07:38.888Z,65.66
2023-01-23T23:10:40.526Z,65.82
2023-01-23T23:13:42.924Z,66.01
2023-01-23T23:16:44.787Z,66.10
2023-01-23T23:19:46.445Z,66.32
2023-01-23T23:22:48.106Z,66.30
2023-01-23T23:25:53.785Z,66.23
2023-01-23T23:28:55.466Z,66.19
2023-01-23T23:31:57.090Z,66.39
2023-01-23T23:34:59.328Z,66.27
2023-01-23T23:38:00.920Z,66.24
2023-01-23T23:41:21.521Z,66.19
2023-01-23T23:44:23.286Z,66.30
2023-01-23T23:47:24.933Z,66.24
2023-01-23T23:50:26.697Z,66.23
2023-01-23T23:53:28.911Z,66.29
2023-01-23T23:56:32.270Z,66.41
2023-01-23T23:59:33.850Z,66.35
